createdAt,value
2023-01-25T00:01:03.955Z,98382.88
2023-01-25T00:02:05.921Z,98392.34
2023-01-25T00:03:07.915Z,98385.31
2023-01-25T00:04:09.768Z,98381.84
2023-01-25T00:05:11.710Z,98386.16
2023-01-25T00:06:13.507Z,98386.16
2023-01-25T00:07:15.351Z,98384.41
2023-01-25T00:08:17.257Z,98386.28
2023-01-25T00:09:19.720Z,98381.94
2023-01-25T00:10:21.605Z,98387.91
2023-01-25T00:11:23.545Z,98390.47
2023-01-25T00:12:25.326Z,98392.13
2023-01-25T00:13:27.432Z,98390.63
2023-01-25T00:14:29.235Z,98384.84
2023-01-25T00:15:31.256Z,98388.69
2023-01-25T00:16:33.284Z,98383.91
2023-01-25T00:17:35.299Z,98389.25
2023-01-25T00:18:37.055Z,98390.06
2023-01-25T00:19:38.854Z,98386.69
2023-01-25T00:20:40.849Z,98386.78
2023-01-25T00:21:42.725Z,98391.84
2023-01-25T00:22:44.563Z,98391.84
2023-01-25T00:23:46.650Z,98395.34
2023-01-25T00:24:48.519Z,98383.63
2023-01-25T00:25:57.759Z,98389.81
2023-01-25T00:27:00.133Z,98392.72
2023-01-25T00:28:01.934Z,98396.13
2023-01-25T00:29:03.892Z,98392.28
2023-01-25T00:30:06.191Z,98394.66
2023-01-25T00:31:10.095Z,98385.06
2023-01-25T00:32:15.141Z,98381.53
2023-01-25T00:33:16.953Z,98380.94
2023-01-25T00:34:21.613Z,98382.78
2023-01-25T00:35:23.478Z,98386.94
2023-01-25T00:36:33.229Z,98387.72
2023-01-25T00:37:39.367Z,98385.06
2023-01-25T00:38:43.680Z,98388.34
2023-01-25T00:39:45.487Z,98381.31
2023-01-25T00:40:49.796Z,98383.75
2023-01-25T00:41:51.621Z,98384.00
2023-01-25T00:42:53.413Z,98384.91
2023-01-25T00:43:55.189Z,98384.81
2023-01-25T00:44:57.095Z,98390.69
2023-01-25T00:46:02.356Z,98383.06
2023-01-25T00:47:05.418Z,98389.97
2023-01-25T00:48:07.263Z,98386.47
2023-01-25T00:49:19.411Z,98390.78
2023-01-25T00:50:21.323Z,98389.75
2023-01-25T00:51:23.180Z,98389.75
2023-01-25T00:52:25.183Z,98393.97
2023-01-25T00:53:27.017Z,98397.25
2023-01-25T00:54:28.866Z,98397.94
2023-01-25T00:55:30.678Z,98393.66
2023-01-25T00:56:32.512Z,98393.66
2023-01-25T00:57:34.441Z,98398.56
2023-01-25T00:58:36.426Z,98391.78
2023-01-25T00:59:38.359Z,98400.31
2023-01-25T01:00:40.171Z,98399.59
2023-01-25T01:01:42.562Z,98387.66
2023-01-25T01:02:44.465Z,98391.16
2023-01-25T01:03:46.289Z,98390.47
2023-01-25T01:04:48.364Z,98391.38
2023-01-25T01:05:59.438Z,98394.06
2023-01-25T01:07:01.281Z,98391.38
2023-01-25T01:08:03.213Z,98387.78
2023-01-25T01:09:06.047Z,98388.59
2023-01-25T01:10:08.241Z,98381.69
2023-01-25T01:11:11.053Z,98385.78
2023-01-25T01:12:12.971Z,98385.78
2023-01-25T01:13:14.804Z,98377.03
2023-01-25T01:14:16.620Z,98378.75
2023-01-25T01:15:18.425Z,98375.47
2023-01-25T01:16:20.252Z,98377.94
2023-01-25T01:17:22.196Z,98377.94
2023-01-25T01:18:24.060Z,98378.75
2023-01-25T01:19:25.935Z,98375.38
2023-01-25T01:20:27.827Z,98382.19
2023-01-25T01:21:29.604Z,98381.47
2023-01-25T01:22:31.406Z,98378.75
2023-01-25T01:23:33.337Z,98381.34
2023-01-25T01:24:35.252Z,98384.63
2023-01-25T01:25:37.041Z,98384.50
2023-01-25T01:26:38.866Z,98385.31
2023-01-25T01:27:40.681Z,98380.19
2023-01-25T01:28:43.097Z,98377.50
2023-01-25T01:29:44.961Z,98373.16
2023-01-25T01:30:46.823Z,98380.78
2023-01-25T01:31:51.550Z,98375.53
2023-01-25T01:32:53.450Z,98376.22
2023-01-25T01:33:57.282Z,98373.66
2023-01-25T01:34:59.150Z,98373.53
2023-01-25T01:36:07.262Z,98379.50
2023-01-25T01:37:09.117Z,98378.56
2023-01-25T01:38:10.981Z,98374.25
2023-01-25T01:39:12.737Z,98379.41
2023-01-25T01:40:15.020Z,98380.22
2023-01-25T01:41:17.324Z,98374.94
2023-01-25T01:42:19.174Z,98376.56
2023-01-25T01:43:22.347Z,98379.97
2023-01-25T01:44:43.863Z,98374.94
2023-01-25T01:45:48.523Z,98377.63
2023-01-25T01:46:55.204Z,98374.94
2023-01-25T01:47:57.040Z,98379.41
2023-01-25T01:49:02.039Z,98377.63
2023-01-25T01:50:06.702Z,98368.16
2023-01-25T01:51:27.421Z,98375.88
2023-01-25T01:52:31.437Z,98373.28
2023-01-25T01:53:34.246Z,98375.75
2023-01-25T01:54:42.417Z,98374.00
2023-01-25T01:55:44.330Z,98366.28
2023-01-25T01:56:49.504Z,98373.91
2023-01-25T01:57:58.225Z,98367.09
2023-01-25T01:59:00.524Z,98375.53
2023-01-25T02:00:28.676Z,98365.34
2023-01-25T02:01:30.613Z,98362.19
2023-01-25T02:02:32.487Z,98360.53
2023-01-25T02:03:35.011Z,98356.22
2023-01-25T02:04:37.212Z,98362.19
2023-01-25T02:06:02.239Z,98358.66
2023-01-25T02:07:08.171Z,98348.59
2023-01-25T02:08:11.473Z,98358.41
2023-01-25T02:09:15.120Z,98357.69
2023-01-25T02:10:17.687Z,98358.75
2023-01-25T02:11:20.369Z,98358.06
2023-01-25T02:12:23.894Z,98353.94
2023-01-25T02:13:25.813Z,98355.47
2023-01-25T02:14:29.348Z,98358.16
2023-01-25T02:15:37.612Z,98362.59
2023-01-25T02:16:39.569Z,98363.56
2023-01-25T02:17:42.051Z,98357.69
2023-01-25T02:18:44.044Z,98360.25
2023-01-25T02:20:07.915Z,98364.47
2023-01-25T02:21:10.632Z,98353.34
2023-01-25T02:22:16.695Z,98352.44
2023-01-25T02:23:24.511Z,98355.81
2023-01-25T02:24:31.968Z,98357.44
2023-01-25T02:25:33.782Z,98350.66
2023-01-25T02:26:35.593Z,98349.97
2023-01-25T02:27:39.879Z,98355.13
2023-01-25T02:28:44.821Z,98359.31
2023-01-25T02:29:46.995Z,98365.41
2023-01-25T02:30:49.052Z,98357.69
2023-01-25T02:31:52.934Z,98358.59
2023-01-25T02:32:54.857Z,98361.31
2023-01-25T02:33:56.656Z,98357.09
2023-01-25T02:34:58.433Z,98356.16
2023-01-25T02:36:01.696Z,98346.78
2023-01-25T02:37:03.640Z,98355.31
2023-01-25T02:38:06.363Z,98357.81
2023-01-25T02:39:10.355Z,98352.75
2023-01-25T02:40:12.300Z,98346.69
2023-01-25T02:41:34.443Z,98358.75
2023-01-25T02:42:36.797Z,98352.66
2023-01-25T02:43:38.811Z,98349.38
2023-01-25T02:44:41.431Z,98352.03
2023-01-25T02:45:45.460Z,98346.09
2023-01-25T02:46:48.214Z,98351.34
2023-01-25T02:47:50.020Z,98349.56
2023-01-25T02:48:51.974Z,98351.34
2023-01-25T02:49:53.946Z,98353.22
2023-01-25T02:50:55.773Z,98350.63
2023-01-25T02:51:57.820Z,98347.34
2023-01-25T02:52:59.673Z,98348.41
2023-01-25T02:54:02.270Z,98351.09
2023-01-25T02:55:04.175Z,98349.22
2023-01-25T02:56:06.347Z,98352.50
2023-01-25T02:57:08.516Z,98345.72
2023-01-25T02:58:10.304Z,98342.19
2023-01-25T02:59:13.627Z,98355.88
2023-01-25T03:00:15.954Z,98348.06
2023-01-25T03:01:18.350Z,98349.81
2023-01-25T03:02:20.241Z,98348.06
2023-01-25T03:03:22.335Z,98346.28
2023-01-25T03:04:24.199Z,98341.16
2023-01-25T03:05:26.112Z,98341.16
2023-01-25T03:06:27.946Z,98343.72
2023-01-25T03:07:29.787Z,98342.91
2023-01-25T03:08:31.577Z,98335.19
2023-01-25T03:09:33.339Z,98335.88
2023-01-25T03:10:35.361Z,98332.41
2023-01-25T03:11:37.279Z,98329.81
2023-01-25T03:12:39.362Z,98332.41
2023-01-25T03:13:41.159Z,98332.25
2023-01-25T03:14:44.664Z,98327.94
2023-01-25T03:15:46.540Z,98324.44
2023-01-25T03:16:48.353Z,98331.22
2023-01-25T03:17:50.192Z,98332.84
2023-01-25T03:18:55.603Z,98322.56
2023-01-25T03:19:57.480Z,98330.41
2023-01-25T03:21:25.670Z,98330.53
2023-01-25T03:22:27.569Z,98332.16
2023-01-25T03:23:29.413Z,98330.41
2023-01-25T03:24:31.269Z,98338.00
2023-01-25T03:25:33.147Z,98331.22
2023-01-25T03:26:54.819Z,98319.28
2023-01-25T03:27:56.605Z,98333.00
2023-01-25T03:28:58.439Z,98333.00
2023-01-25T03:30:00.341Z,98326.09
2023-01-25T03:31:02.212Z,98326.09
2023-01-25T03:32:04.688Z,98339.66
2023-01-25T03:33:08.519Z,98334.50
2023-01-25T03:34:10.364Z,98332.66
2023-01-25T03:35:12.175Z,98338.50
2023-01-25T03:36:13.992Z,98326.31
2023-01-25T03:37:15.843Z,98324.56
2023-01-25T03:38:17.664Z,98328.66
2023-01-25T03:39:19.586Z,98330.31
2023-01-25T03:40:21.424Z,98326.78
2023-01-25T03:41:23.317Z,98328.09
2023-01-25T03:42:25.182Z,98322.81
2023-01-25T03:43:27.414Z,98329.81
2023-01-25T03:44:29.357Z,98325.63
2023-01-25T03:45:31.240Z,98323.16
2023-01-25T03:46:32.976Z,98324.81
2023-01-25T03:47:34.896Z,98323.03
2023-01-25T03:48:36.740Z,98322.09
2023-01-25T03:49:38.608Z,98313.66
2023-01-25T03:50:40.456Z,98318.13
2023-01-25T03:51:42.319Z,98309.56
2023-01-25T03:52:46.730Z,98314.84
2023-01-25T03:53:48.517Z,98313.31
2023-01-25T03:54:50.362Z,98309.94
2023-01-25T03:55:52.152Z,98307.56
2023-01-25T03:56:53.973Z,98309.31
2023-01-25T03:57:55.895Z,98310.94
2023-01-25T03:58:57.680Z,98320.34
2023-01-25T03:59:59.475Z,98299.94
2023-01-25T04:01:02.146Z,98307.81
2023-01-25T04:02:04.045Z,98312.97
2023-01-25T04:03:05.888Z,98310.59
2023-01-25T04:04:07.689Z,98301.25
2023-01-25T04:05:09.853Z,98306.50
2023-01-25T04:06:11.967Z,98304.97
2023-01-25T04:07:13.760Z,98307.66
2023-01-25T04:08:15.587Z,98304.97
2023-01-25T04:09:17.432Z,98303.13
2023-01-25T04:10:19.265Z,98307.31
2023-01-25T04:11:21.135Z,98296.09
2023-01-25T04:12:22.978Z,98295.97
2023-01-25T04:13:25.365Z,98301.47
2023-01-25T04:14:43.385Z,98291.25
2023-01-25T04:15:46.096Z,98291.16
2023-01-25T04:16:47.987Z,98292.81
2023-01-25T04:17:49.824Z,98293.53
2023-01-25T04:18:51.554Z,98291.66
2023-01-25T04:19:53.360Z,98290.81
2023-01-25T04:20:55.808Z,98285.66
2023-01-25T04:21:57.608Z,98285.56
2023-01-25T04:23:00.026Z,98282.88
2023-01-25T04:24:01.921Z,98293.97
2023-01-25T04:25:03.858Z,98282.75
2023-01-25T04:26:07.330Z,98283.69
2023-01-25T04:27:09.324Z,98281.09
2023-01-25T04:28:11.280Z,98285.56
2023-01-25T04:29:13.332Z,98282.53
2023-01-25T04:30:15.237Z,98281.69
2023-01-25T04:31:17.135Z,98282.72
2023-01-25T04:32:19.188Z,98280.63
2023-01-25T04:33:21.649Z,98283.44
2023-01-25T04:34:24.378Z,98284.34
2023-01-25T04:35:26.164Z,98296.31
2023-01-25T04:36:28.020Z,98288.59
2023-01-25T04:37:29.855Z,98290.22
2023-01-25T04:38:31.701Z,98286.94
2023-01-25T04:39:33.559Z,98280.72
2023-01-25T04:40:35.399Z,98285.88
2023-01-25T04:41:37.244Z,98288.34
2023-01-25T04:42:39.116Z,98291.00
2023-01-25T04:43:41.099Z,98295.69
2023-01-25T04:44:43.059Z,98295.22
2023-01-25T04:45:44.933Z,98297.31
2023-01-25T04:46:46.823Z,98292.47
2023-01-25T04:47:49.359Z,98297.53
2023-01-25T04:48:51.198Z,98298.13
2023-01-25T04:49:52.971Z,98297.53
2023-01-25T04:50:54.770Z,98282.19
2023-01-25T04:51:56.541Z,98286.88
2023-01-25T04:52:58.433Z,98281.94
2023-01-25T04:54:00.246Z,98285.56
2023-01-25T04:55:02.071Z,98283.94
2023-01-25T04:56:04.025Z,98280.75
2023-01-25T04:57:05.747Z,98278.28
2023-01-25T04:58:07.876Z,98280.84
2023-01-25T04:59:11.253Z,98278.38
2023-01-25T05:00:13.237Z,98284.25
2023-01-25T05:01:14.984Z,98277.13
2023-01-25T05:02:16.962Z,98281.22
2023-01-25T05:03:19.472Z,98272.47
2023-01-25T05:04:21.383Z,98274.72
2023-01-25T05:05:23.375Z,98283.25
2023-01-25T05:06:25.203Z,98274.59
2023-01-25T05:07:27.037Z,98270.97
2023-01-25T05:08:28.884Z,98269.91
2023-01-25T05:09:31.034Z,98275.66
2023-01-25T05:10:32.806Z,98273.09
2023-01-25T05:11:34.572Z,98272.16
2023-01-25T05:12:36.380Z,98273.81
2023-01-25T05:13:38.349Z,98273.81
2023-01-25T05:14:40.242Z,98268.66
2023-01-25T05:15:42.084Z,98278.34
2023-01-25T05:16:43.986Z,98273.19
2023-01-25T05:17:45.776Z,98273.09
2023-01-25T05:18:49.337Z,98270.53
2023-01-25T05:19:51.745Z,98267.94
2023-01-25T05:20:56.614Z,98272.84
2023-01-25T05:21:58.502Z,98271.94
2023-01-25T05:23:00.222Z,98264.22
2023-01-25T05:24:02.175Z,98268.31
2023-01-25T05:25:04.440Z,98271.59
2023-01-25T05:26:24.435Z,98265.72
2023-01-25T05:27:26.289Z,98267.59
2023-01-25T05:28:28.084Z,98270.28
2023-01-25T05:29:32.710Z,98277.09
2023-01-25T05:30:34.621Z,98271.94
2023-01-25T05:31:36.636Z,98266.78
2023-01-25T05:32:38.435Z,98266.78
2023-01-25T05:33:40.252Z,98266.78
2023-01-25T05:34:42.451Z,98268.53
2023-01-25T05:35:44.712Z,98271.72
2023-01-25T05:36:46.467Z,98268.19
2023-01-25T05:37:48.349Z,98263.75
2023-01-25T05:38:50.148Z,98277.69
2023-01-25T05:39:51.986Z,98269.00
2023-01-25T05:40:57.842Z,98274.06
2023-01-25T05:41:59.673Z,98275.72
2023-01-25T05:43:01.578Z,98269.63
2023-01-25T05:44:03.725Z,98266.13
2023-01-25T05:45:06.100Z,98266.94
2023-01-25T05:46:08.768Z,98256.75
2023-01-25T05:47:14.484Z,98262.84
2023-01-25T05:48:16.231Z,98256.75
2023-01-25T05:49:18.124Z,98255.69
2023-01-25T05:50:20.153Z,98256.38
2023-01-25T05:51:22.066Z,98261.53
2023-01-25T05:52:23.919Z,98265.75
2023-01-25T05:53:29.279Z,98263.19
2023-01-25T05:54:31.165Z,98265.88
2023-01-25T05:55:35.197Z,98266.81
2023-01-25T05:56:37.119Z,98258.16
2023-01-25T05:57:39.072Z,98254.66
2023-01-25T05:58:40.839Z,98254.53
2023-01-25T05:59:42.622Z,98253.94
2023-01-25T06:00:44.552Z,98255.56
2023-01-25T06:01:46.448Z,98256.38
2023-01-25T06:02:48.347Z,98252.09
2023-01-25T06:03:50.129Z,98248.56
2023-01-25T06:04:52.062Z,98248.56
2023-01-25T06:05:57.454Z,98257.09
2023-01-25T06:06:59.251Z,98251.84
2023-01-25T06:08:01.074Z,98249.25
2023-01-25T06:09:03.005Z,98257.69
2023-01-25T06:10:05.531Z,98249.97
2023-01-25T06:11:08.391Z,98251.72
2023-01-25T06:12:11.062Z,98251.84
2023-01-25T06:13:12.828Z,98247.50
2023-01-25T06:14:14.708Z,98250.06
2023-01-25T06:15:16.542Z,98246.69
2023-01-25T06:16:19.048Z,98250.22
2023-01-25T06:17:21.120Z,98250.22
2023-01-25T06:18:24.816Z,98255.22
2023-01-25T06:19:26.715Z,98249.97
2023-01-25T06:20:28.524Z,98255.00
2023-01-25T06:21:30.499Z,98255.81
2023-01-25T06:22:32.380Z,98253.72
2023-01-25T06:23:34.213Z,98253.09
2023-01-25T06:24:35.994Z,98248.09
2023-01-25T06:25:37.833Z,98247.16
2023-01-25T06:26:39.608Z,98248.91
2023-01-25T06:27:41.465Z,98247.97
2023-01-25T06:28:43.361Z,98246.22
2023-01-25T06:29:45.164Z,98246.09
2023-01-25T06:30:47.258Z,98243.41
2023-01-25T06:31:49.144Z,98250.22
2023-01-25T06:32:51.087Z,98249.38
2023-01-25T06:33:53.077Z,98244.13
2023-01-25T06:34:54.852Z,98249.97
2023-01-25T06:36:00.244Z,98250.78
2023-01-25T06:37:02.191Z,98246.34
2023-01-25T06:38:04.028Z,98248.91
2023-01-25T06:39:05.865Z,98250.78
2023-01-25T06:40:07.911Z,98249.25
2023-01-25T06:41:13.338Z,98241.53
2023-01-25T06:42:15.221Z,98249.38
2023-01-25T06:43:17.025Z,98243.19
2023-01-25T06:44:18.912Z,98243.19
2023-01-25T06:45:21.406Z,98241.66
2023-01-25T06:46:23.325Z,98238.50
2023-01-25T06:47:25.165Z,98244.47
2023-01-25T06:48:27.299Z,98246.94
2023-01-25T06:49:29.209Z,98245.78
2023-01-25T06:50:31.026Z,98240.47
2023-01-25T06:51:32.791Z,98241.31
2023-01-25T06:52:37.191Z,98244.72
2023-01-25T06:53:41.003Z,98243.66
2023-01-25T06:54:42.885Z,98235.94
2023-01-25T06:55:44.672Z,98237.69
2023-01-25T06:56:46.495Z,98238.75
2023-01-25T06:57:48.761Z,98242.03
2023-01-25T06:58:50.956Z,98238.50
2023-01-25T06:59:52.913Z,98233.34
2023-01-25T07:00:55.148Z,98237.59
2023-01-25T07:01:57.025Z,98230.78
2023-01-25T07:02:58.914Z,98232.44
2023-01-25T07:04:00.778Z,98235.00
2023-01-25T07:05:02.731Z,98229.84
2023-01-25T07:06:06.236Z,98230.56
2023-01-25T07:07:11.262Z,98229.59
2023-01-25T07:08:13.131Z,98218.38
2023-01-25T07:09:15.058Z,98221.88
2023-01-25T07:10:16.824Z,98224.56
2023-01-25T07:11:19.398Z,98210.88
2023-01-25T07:12:22.535Z,98215.13
2023-01-25T07:13:25.335Z,98204.81
2023-01-25T07:14:27.182Z,98206.44
2023-01-25T07:15:29.095Z,98214.06
2023-01-25T07:16:37.065Z,98214.16
2023-01-25T07:17:38.932Z,98211.69
2023-01-25T07:18:41.168Z,98212.66
2023-01-25T07:19:43.021Z,98214.41
2023-01-25T07:20:44.785Z,98208.31
2023-01-25T07:21:47.396Z,98217.53
2023-01-25T07:22:49.277Z,98215.81
2023-01-25T07:23:51.661Z,98219.19
2023-01-25T07:24:54.227Z,98220.81
2023-01-25T07:25:58.430Z,98213.34
2023-01-25T07:27:00.298Z,98221.19
2023-01-25T07:28:02.085Z,98222.13
2023-01-25T07:29:03.911Z,98221.44
2023-01-25T07:30:07.146Z,98226.69
2023-01-25T07:31:09.781Z,98230.78
2023-01-25T07:32:14.794Z,98224.81
2023-01-25T07:33:16.618Z,98217.31
2023-01-25T07:34:18.390Z,98218.47
2023-01-25T07:35:20.313Z,98215.44
2023-01-25T07:36:22.671Z,98223.88
2023-01-25T07:37:25.561Z,98218.72
2023-01-25T07:38:27.487Z,98222.09
2023-01-25T07:39:29.422Z,98221.19
2023-01-25T07:40:31.303Z,98224.47
2023-01-25T07:41:33.681Z,98224.47
2023-01-25T07:42:35.674Z,98222.81
2023-01-25T07:43:37.535Z,98212.50
2023-01-25T07:44:39.517Z,98219.53
2023-01-25T07:45:44.849Z,98223.06
2023-01-25T07:46:46.656Z,98220.59
2023-01-25T07:47:48.558Z,98223.28
2023-01-25T07:48:51.604Z,98225.97
2023-01-25T07:49:55.206Z,98222.69
2023-01-25T07:51:12.988Z,98224.44
2023-01-25T07:52:14.917Z,98227.00
2023-01-25T07:53:17.058Z,98224.78
2023-01-25T07:54:18.840Z,98223.94
2023-01-25T07:55:22.004Z,98227.25
2023-01-25T07:56:25.325Z,98230.66
2023-01-25T07:57:28.635Z,98229.94
2023-01-25T07:58:30.556Z,98227.38
2023-01-25T07:59:32.407Z,98223.94
2023-01-25T08:00:34.226Z,98227.38
2023-01-25T08:01:37.348Z,98223.13
2023-01-25T08:02:39.531Z,98223.94
2023-01-25T08:03:41.687Z,98228.19
2023-01-25T08:04:44.795Z,98222.22
2023-01-25T08:05:46.648Z,98226.41
2023-01-25T08:06:48.422Z,98223.94
2023-01-25T08:07:50.259Z,98230.66
2023-01-25T08:08:52.058Z,98224.53
2023-01-25T08:09:54.004Z,98215.66
2023-01-25T08:10:55.872Z,98214.75
2023-01-25T08:11:57.727Z,98220.59
2023-01-25T08:12:59.555Z,98215.66
2023-01-25T08:14:03.227Z,98217.53
2023-01-25T08:15:05.306Z,98221.06
2023-01-25T08:16:07.134Z,98212.28
2023-01-25T08:17:08.941Z,98219.06
2023-01-25T08:18:10.787Z,98214.84
2023-01-25T08:19:12.847Z,98220.00
2023-01-25T08:20:15.076Z,98215.56
2023-01-25T08:21:23.964Z,98213.78
2023-01-25T08:22:27.185Z,98218.84
2023-01-25T08:23:29.549Z,98221.41
2023-01-25T08:24:31.413Z,98226.56
2023-01-25T08:25:33.283Z,98219.78
2023-01-25T08:26:36.211Z,98228.44
2023-01-25T08:27:38.043Z,98225.84
2023-01-25T08:28:40.329Z,98220.50
2023-01-25T08:29:42.135Z,98223.16
2023-01-25T08:30:56.568Z,98223.75
2023-01-25T08:31:59.459Z,98224.47
2023-01-25T08:33:01.326Z,98228.78
2023-01-25T08:34:03.121Z,98229.84
2023-01-25T08:35:05.290Z,98228.91
2023-01-25T08:36:09.208Z,98229.03
2023-01-25T08:37:11.168Z,98224.56
2023-01-25T08:38:12.974Z,98219.53
2023-01-25T08:39:14.831Z,98220.81
2023-01-25T08:40:17.249Z,98219.19
2023-01-25T08:41:22.303Z,98221.66
2023-01-25T08:42:24.868Z,98216.50
2023-01-25T08:43:26.698Z,98213.69
2023-01-25T08:44:28.590Z,98209.25
2023-01-25T08:45:34.675Z,98205.75
2023-01-25T08:46:36.539Z,98210.75
2023-01-25T08:47:38.303Z,98209.03
2023-01-25T08:48:40.100Z,98203.03
2023-01-25T08:49:42.883Z,98213.47
2023-01-25T08:50:47.766Z,98204.69
2023-01-25T08:51:50.733Z,98213.09
2023-01-25T08:52:52.648Z,98207.00
2023-01-25T08:53:55.032Z,98207.84
2023-01-25T08:54:57.140Z,98199.19
2023-01-25T08:56:09.219Z,98208.56
2023-01-25T08:57:11.118Z,98204.91
2023-01-25T08:58:13.677Z,98206.69
2023-01-25T08:59:15.546Z,98204.91
2023-01-25T09:00:17.690Z,98203.97
2023-01-25T09:01:20.195Z,98203.16
2023-01-25T09:02:22.074Z,98207.25
2023-01-25T09:03:23.899Z,98207.13
2023-01-25T09:04:28.859Z,98205.38
2023-01-25T09:05:30.755Z,98201.88
2023-01-25T09:06:33.363Z,98200.00
2023-01-25T09:07:38.733Z,98200.81
2023-01-25T09:08:40.532Z,98202.69
2023-01-25T09:09:42.425Z,98201.06
2023-01-25T09:10:44.275Z,98195.91
2023-01-25T09:11:46.216Z,98198.59
2023-01-25T09:12:47.989Z,98201.06
2023-01-25T09:13:49.807Z,98191.47
2023-01-25T09:14:51.675Z,98191.34
2023-01-25T09:15:58.830Z,98196.50
2023-01-25T09:17:00.597Z,98196.38
2023-01-25T09:18:02.456Z,98198.72
2023-01-25T09:19:05.645Z,98200.34
2023-01-25T09:20:08.147Z,98200.25
2023-01-25T09:21:13.396Z,98195.78
2023-01-25T09:22:15.177Z,98201.75
2023-01-25T09:23:17.073Z,98194.28
2023-01-25T09:24:18.949Z,98195.78
2023-01-25T09:25:20.796Z,98188.88
2023-01-25T09:26:22.702Z,98194.72
2023-01-25T09:27:24.645Z,98194.63
2023-01-25T09:28:27.533Z,98194.50
2023-01-25T09:29:29.379Z,98194.50
2023-01-25T09:30:45.553Z,98198.00
2023-01-25T09:31:49.399Z,98190.63
2023-01-25T09:32:51.393Z,98186.06
2023-01-25T09:33:53.367Z,98193.09
2023-01-25T09:34:55.169Z,98191.47
2023-01-25T09:35:56.951Z,98187.84
2023-01-25T09:36:58.893Z,98180.00
2023-01-25T09:38:00.634Z,98179.03
2023-01-25T09:39:02.443Z,98177.75
2023-01-25T09:40:05.267Z,98179.97
2023-01-25T09:41:13.301Z,98182.22
2023-01-25T09:42:27.076Z,98181.50
2023-01-25T09:43:42.986Z,98174.81
2023-01-25T09:44:54.131Z,98174.00
2023-01-25T09:45:56.065Z,98177.41
2023-01-25T09:47:00.683Z,98171.22
2023-01-25T09:48:05.311Z,98171.22
2023-01-25T09:49:09.130Z,98169.19
2023-01-25T09:50:14.248Z,98164.72
2023-01-25T09:51:15.989Z,98168.00
2023-01-25T09:52:36.600Z,98168.84
2023-01-25T09:53:43.653Z,98171.28
2023-01-25T09:54:47.373Z,98173.63
2023-01-25T09:55:51.447Z,98170.09
2023-01-25T09:56:53.252Z,98170.84
2023-01-25T09:57:57.109Z,98163.09
2023-01-25T09:59:00.973Z,98168.13
2023-01-25T10:00:10.436Z,98168.13
2023-01-25T10:01:14.448Z,98160.28
2023-01-25T10:02:29.537Z,98164.25
2023-01-25T10:03:39.503Z,98156.50
2023-01-25T10:04:42.843Z,98156.63
2023-01-25T10:05:46.200Z,98153.94
2023-01-25T10:07:00.902Z,98155.59
2023-01-25T10:08:19.884Z,98160.06
2023-01-25T10:09:34.284Z,98155.69
2023-01-25T10:10:38.765Z,98147.88
2023-01-25T10:11:40.852Z,98151.94
2023-01-25T10:12:42.734Z,98150.19
2023-01-25T10:13:44.551Z,98147.38
2023-01-25T10:14:46.653Z,98146.41
2023-01-25T10:15:50.608Z,98148.06
2023-01-25T10:17:08.532Z,98152.28
2023-01-25T10:18:13.248Z,98148.19
2023-01-25T10:19:19.463Z,98136.91
2023-01-25T10:20:38.862Z,98131.66
2023-01-25T10:21:43.204Z,98136.56
2023-01-25T10:22:51.073Z,98129.88
2023-01-25T10:24:02.179Z,98129.06
2023-01-25T10:25:04.002Z,98136.00
2023-01-25T10:26:11.303Z,98127.44
2023-01-25T10:27:31.437Z,98124.88
2023-01-25T10:28:50.300Z,98126.28
2023-01-25T10:29:53.862Z,98127.66
2023-01-25T10:30:58.703Z,98117.34
2023-01-25T10:32:19.407Z,98119.66
2023-01-25T10:33:21.777Z,98112.75
2023-01-25T10:34:28.384Z,98114.97
2023-01-25T10:35:40.283Z,98116.84
2023-01-25T10:36:46.374Z,98109.81
2023-01-25T10:37:48.618Z,98108.16
2023-01-25T10:38:50.629Z,98111.94
2023-01-25T10:39:58.373Z,98107.03
2023-01-25T10:41:02.807Z,98106.91
2023-01-25T10:42:10.393Z,98108.78
2023-01-25T10:43:15.549Z,98107.03
2023-01-25T10:44:24.253Z,98113.81
2023-01-25T10:45:26.369Z,98106.91
2023-01-25T10:46:28.272Z,98111.94
2023-01-25T10:47:32.163Z,98104.91
2023-01-25T10:48:35.926Z,98099.75
2023-01-25T10:49:41.935Z,98093.78
2023-01-25T10:50:46.687Z,98094.59
2023-01-25T10:51:48.682Z,98085.22
2023-01-25T10:52:58.221Z,98082.06
2023-01-25T10:54:02.807Z,98078.00
2023-01-25T10:55:15.949Z,98072.16
2023-01-25T10:56:19.462Z,98082.81
2023-01-25T10:57:22.733Z,98079.19
2023-01-25T10:58:36.568Z,98070.50
2023-01-25T10:59:38.645Z,98067.69
2023-01-25T11:00:41.396Z,98061.34
2023-01-25T11:01:43.336Z,98061.34
2023-01-25T11:02:46.338Z,98056.31
2023-01-25T11:03:48.159Z,98053.59
2023-01-25T11:04:50.040Z,98052.66
2023-01-25T11:05:55.663Z,98051.72
2023-01-25T11:06:57.899Z,98044.00
2023-01-25T11:08:16.407Z,98038.13
2023-01-25T11:09:21.167Z,98046.56
2023-01-25T11:10:33.695Z,98043.28
2023-01-25T11:11:36.933Z,98040.03
2023-01-25T11:12:38.743Z,98033.09
2023-01-25T11:13:41.307Z,98033.78
2023-01-25T11:14:43.155Z,98030.25
2023-01-25T11:15:50.050Z,98031.78
2023-01-25T11:16:51.824Z,98038.44
2023-01-25T11:18:13.740Z,98029.91
2023-01-25T11:19:27.484Z,98032.72
2023-01-25T11:20:29.239Z,98028.53
2023-01-25T11:21:32.750Z,98028.38
2023-01-25T11:22:34.537Z,98036.00
2023-01-25T11:23:36.362Z,98028.38
2023-01-25T11:24:38.246Z,98029.34
2023-01-25T11:25:40.284Z,98026.88
2023-01-25T11:26:42.139Z,98027.81
2023-01-25T11:27:43.990Z,98030.25
2023-01-25T11:28:49.243Z,98022.53
2023-01-25T11:30:07.476Z,98022.69
2023-01-25T11:31:12.305Z,98020.22
2023-01-25T11:32:16.434Z,98018.22
2023-01-25T11:33:19.578Z,98014.69
2023-01-25T11:34:22.753Z,98007.75
2023-01-25T11:35:27.868Z,98003.16
2023-01-25T11:36:35.907Z,98011.03
2023-01-25T11:37:49.375Z,97998.00
2023-01-25T11:39:20.597Z,98002.25
2023-01-25T11:40:32.498Z,97993.69
2023-01-25T11:41:44.446Z,97991.53
2023-01-25T11:43:05.153Z,97987.63
2023-01-25T11:44:13.160Z,97982.22
2023-01-25T11:45:18.058Z,97981.84
2023-01-25T11:46:35.243Z,97980.09
2023-01-25T11:47:52.126Z,97975.84
2023-01-25T11:48:54.016Z,97973.97
2023-01-25T11:49:58.914Z,97966.22
2023-01-25T11:51:11.632Z,97968.13
2023-01-25T11:52:13.344Z,97963.94
2023-01-25T11:53:27.218Z,97961.06
2023-01-25T11:54:31.881Z,97959.88
2023-01-25T11:55:45.844Z,97959.63
2023-01-25T11:56:56.966Z,97954.47
2023-01-25T11:57:58.734Z,97946.72
2023-01-25T11:59:00.474Z,97951.88
2023-01-25T12:00:15.278Z,97945.91
2023-01-25T12:01:29.102Z,97938.31
2023-01-25T12:02:45.333Z,97945.09
2023-01-25T12:04:00.880Z,97935.72
2023-01-25T12:05:22.316Z,97929.59
2023-01-25T12:06:27.158Z,97929.50
2023-01-25T12:07:41.409Z,97928.69
2023-01-25T12:08:58.658Z,97926.78
2023-01-25T12:10:09.175Z,97928.41
2023-01-25T12:11:17.055Z,97925.13
2023-01-25T12:12:18.827Z,97916.03
2023-01-25T12:13:41.339Z,97921.19
2023-01-25T12:14:50.454Z,97920.50
2023-01-25T12:16:10.493Z,97918.88
2023-01-25T12:17:15.384Z,97918.19
2023-01-25T12:18:29.288Z,97913.03
2023-01-25T12:19:31.030Z,97919.81
2023-01-25T12:20:51.546Z,97908.56
2023-01-25T12:22:11.992Z,97906.69
2023-01-25T12:23:32.689Z,97902.59
2023-01-25T12:24:59.062Z,97904.50
2023-01-25T12:26:03.838Z,97896.47
2023-01-25T12:27:29.891Z,97893.09
2023-01-25T12:28:47.806Z,97884.41
2023-01-25T12:29:58.579Z,97888.50
2023-01-25T12:31:29.726Z,97884.97
2023-01-25T12:32:38.713Z,97879.81
2023-01-25T12:33:43.259Z,97882.50